createdAt,value
2018-03-03T00:02:31.228Z,992.63
2018-03-03T00:12:31.257Z,992.75
2018-03-03T00:22:31.168Z,992.78
2018-03-03T00:32:31.244Z,992.66
2018-03-03T00:42:31.202Z,992.6
2018-03-03T00:52:31.263Z,992.57
2018-03-03T01:02:31.238Z,992.48
2018-03-03T01:12:31.206Z,992.44
2018-03-03T01:22:31.263Z,992.4
2018-03-03T01:32:31.316Z,992.37
2018-03-03T01:42:31.267Z,992.43
2018-03-03T01:52:31.222Z,992.51
2018-03-03T02:02:31.302Z,992.39
2018-03-03T02:12:31.274Z,992.35
2018-03-03T02:22:31.320Z,992.31
2018-03-03T02:32:31.299Z,992.22
2018-03-03T02:42:31.277Z,992.16
2018-03-03T02:52:31.318Z,992.06
2018-03-03T03:02:31.269Z,991.89
2018-03-03T03:12:31.344Z,991.74
2018-03-03T03:22:31.286Z,991.75
2018-03-03T03:32:31.344Z,991.69
2018-03-03T03:42:31.338Z,991.59
2018-03-03T03:52:31.367Z,991.49
2018-03-03T04:02:31.353Z,991.49
2018-03-03T04:12:31.299Z,991.42
2018-03-03T04:22:31.379Z,991.24
2018-03-03T04:32:31.359Z,991.18
2018-03-03T04:42:31.393Z,991.11
2018-03-03T04:52:31.327Z,990.91
2018-03-03T05:02:31.405Z,990.79
2018-03-03T05:12:31.369Z,990.72
2018-03-03T05:22:31.456Z,990.75
2018-03-03T05:32:31.411Z,990.73
2018-03-03T05:42:31.393Z,990.67
2018-03-03T05:52:31.427Z,990.59
2018-03-03T06:02:31.382Z,990.55
2018-03-03T06:12:31.427Z,990.67
2018-03-03T06:22:31.407Z,990.69
2018-03-03T06:32:31.461Z,990.69
2018-03-03T06:42:31.432Z,990.69
2018-03-03T06:52:31.408Z,990.68
2018-03-03T07:02:31.466Z,990.7
2018-03-03T07:12:31.435Z,990.77
2018-03-03T07:22:31.536Z,990.8
2018-03-03T07:32:31.445Z,990.81
2018-03-03T07:42:31.493Z,990.85
2018-03-03T07:52:31.466Z,990.98
2018-03-03T08:02:31.536Z,990.95
2018-03-03T08:12:31.507Z,991
2018-03-03T08:22:31.566Z,990.87
2018-03-03T08:32:31.531Z,990.93
2018-03-03T08:42:31.583Z,991.08
2018-03-03T08:52:31.595Z,990.99
2018-03-03T09:02:31.491Z,990.93
2018-03-03T09:12:31.542Z,990.93
2018-03-03T09:22:31.503Z,990.93
2018-03-03T09:32:31.549Z,990.94
2018-03-03T09:42:31.501Z,991.06
2018-03-03T09:52:31.565Z,991
2018-03-03T10:02:31.659Z,991.09
2018-03-03T10:12:31.592Z,991.2
2018-03-03T10:22:31.572Z,991.14
2018-03-03T10:32:31.619Z,991.16
2018-03-03T10:42:31.575Z,991.23
2018-03-03T10:52:31.633Z,991.4
2018-03-03T11:02:31.584Z,991.42
2018-03-03T11:12:31.689Z,991.36
2018-03-03T11:22:32.553Z,991.32
2018-03-03T11:32:31.601Z,991.28
2018-03-03T11:42:31.652Z,991.18
2018-03-03T11:52:31.598Z,991.19
2018-03-03T12:02:31.655Z,991.2
2018-03-03T12:12:31.665Z,991.31
2018-03-03T12:22:31.743Z,991.22
2018-03-03T12:32:31.660Z,991.15
2018-03-03T12:42:31.680Z,991.26
2018-03-03T12:52:31.654Z,991.37
2018-03-03T13:02:31.729Z,991.35
2018-03-03T13:12:31.676Z,991.38
2018-03-03T13:22:31.756Z,991.45
2018-03-03T13:32:31.692Z,991.41
2018-03-03T13:42:31.756Z,991.53
2018-03-03T13:52:31.742Z,991.57
2018-03-03T14:02:31.666Z,991.47
2018-03-03T14:12:31.759Z,991.45
2018-03-03T14:22:31.830Z,991.54
2018-03-03T14:32:31.806Z,991.5
2018-03-03T14:42:31.804Z,991.53
2018-03-03T14:52:31.791Z,991.42
2018-03-03T15:02:31.811Z,991.5
2018-03-03T15:12:31.738Z,991.38
2018-03-03T15:22:31.801Z,991.39
2018-03-03T15:32:31.777Z,991.52
2018-03-03T15:42:31.863Z,991.48
2018-03-03T15:52:31.796Z,991.56
2018-03-03T16:02:31.864Z,991.55
2018-03-03T16:12:31.816Z,991.81
2018-03-03T16:22:31.848Z,991.6
2018-03-03T16:32:31.906Z,991.89
2018-03-03T16:42:31.875Z,992.01
2018-03-03T16:52:31.837Z,991.94
2018-03-03T17:02:31.896Z,992
2018-03-03T17:12:31.887Z,991.83
2018-03-03T17:22:31.909Z,991.85
2018-03-03T17:32:31.876Z,991.91
2018-03-03T17:42:31.930Z,992
2018-03-03T17:52:31.896Z,991.98
2018-03-03T18:02:31.945Z,992.03
2018-03-03T18:12:31.913Z,992.02
2018-03-03T18:22:31.888Z,991.96
2018-03-03T18:32:31.926Z,991.88
2018-03-03T18:42:31.889Z,991.98
2018-03-03T18:52:31.959Z,991.88
2018-03-03T19:02:31.942Z,991.89
2018-03-03T19:12:32.017Z,991.9
2018-03-03T19:22:31.959Z,991.98
2018-03-03T19:32:32.017Z,991.86
2018-03-03T19:42:31.969Z,991.88
2018-03-03T19:52:32.062Z,991.96
2018-03-03T20:02:32.037Z,991.96
2018-03-03T20:12:32.076Z,991.98
2018-03-03T20:22:32.033Z,992.12
2018-03-03T20:32:31.986Z,992.04
2018-03-03T20:42:32.056Z,992.05
2018-03-03T20:52:32.355Z,991.93
2018-03-03T21:02:32.049Z,991.87
2018-03-03T21:12:32.012Z,991.89
2018-03-03T21:22:32.092Z,992.01
2018-03-03T21:32:32.054Z,991.9
2018-03-03T21:42:32.108Z,991.88
2018-03-03T21:52:32.121Z,991.93
2018-03-03T22:02:32.064Z,991.93
2018-03-03T22:12:32.162Z,991.89
2018-03-03T22:22:32.089Z,991.95
2018-03-03T22:32:32.189Z,991.89
2018-03-03T22:42:32.126Z,991.98
2018-03-03T22:52:32.072Z,991.83
2018-03-03T23:02:32.141Z,991.79
2018-03-03T23:12:32.116Z,991.9
2018-03-03T23:22:32.195Z,991.93
2018-03-03T23:32:32.129Z,991.95
2018-03-03T23:42:32.102Z,991.99
2018-03-03T23:52:32.146Z,992.08
